sensor_id;sensor_type;location;lat;lon;timestamp;pressure;altitude;pressure_sealevel;temperature;humidity
70217;BME280;65567;55.684;37.570;2023-04-24T00:00:56;99143.47;;;19.65;23.84
70217;BME280;65567;55.684;37.570;2023-04-24T00:03:23;99141.63;;;19.75;23.91
70217;BME280;65567;55.684;37.570;2023-04-24T00:05:49;99146.16;;;19.85;23.81
70217;BME280;65567;55.684;37.570;2023-04-24T00:08:15;99140.56;;;19.88;24.08
70217;BME280;65567;55.684;37.570;2023-04-24T00:10:41;99145.16;;;20.05;23.71
70217;BME280;65567;55.684;37.570;2023-04-24T00:13:07;99138.44;;;20.01;23.36
70217;BME280;65567;55.684;37.570;2023-04-24T00:15:33;99141.94;;;20.11;24.05
70217;BME280;65567;55.684;37.570;2023-04-24T00:17:59;99139.28;;;20.21;23.81
70217;BME280;65567;55.684;37.570;2023-04-24T00:20:27;99137.19;;;20.15;23.54
70217;BME280;65567;55.684;37.570;2023-04-24T00:22:55;99140.81;;;20.24;22.97
70217;BME280;65567;55.684;37.570;2023-04-24T00:25:21;99136.06;;;19.88;23.09
70217;BME280;65567;55.684;37.570;2023-04-24T00:27:47;99134.94;;;19.91;23.50
70217;BME280;65567;55.684;37.570;2023-04-24T00:30:12;99142.25;;;19.89;23.37
70217;BME280;65567;55.684;37.570;2023-04-24T00:32:38;99137.47;;;19.83;23.47
70217;BME280;65567;55.684;37.570;2023-04-24T00:35:05;99138.28;;;19.73;23.71
70217;BME280;65567;55.684;37.570;2023-04-24T00:37:34;99139.66;;;19.58;23.52
70217;BME280;65567;55.684;37.570;2023-04-24T00:40:00;99138.94;;;19.56;23.82
70217;BME280;65567;55.684;37.570;2023-04-24T00:42:26;99152.78;;;19.30;24.06
70217;BME280;65567;55.684;37.570;2023-04-24T00:44:53;99147.81;;;19.15;23.90
70217;BME280;65567;55.684;37.570;2023-04-24T00:47:19;99148.81;;;19.14;24.04
70217;BME280;65567;55.684;37.570;2023-04-24T00:49:45;99148.81;;;19.14;23.98
70217;BME280;65567;55.684;37.570;2023-04-24T00:52:11;99142.88;;;19.01;23.98
70217;BME280;65567;55.684;37.570;2023-04-24T00:54:37;99140.56;;;18.87;24.30
70217;BME280;65567;55.684;37.570;2023-04-24T00:57:04;99144.56;;;19.02;24.77
70217;BME280;65567;55.684;37.570;2023-04-24T00:59:30;99142.44;;;18.96;24.50
70217;BME280;65567;55.684;37.570;2023-04-24T01:01:57;99146.16;;;19.14;24.67
70217;BME280;65567;55.684;37.570;2023-04-24T01:04:24;99142.16;;;19.30;23.89
70217;BME280;65567;55.684;37.570;2023-04-24T01:06:51;99151.03;;;19.09;24.23
70217;BME280;65567;55.684;37.570;2023-04-24T01:09:18;99144.53;;;18.92;24.32
70217;BME280;65567;55.684;37.570;2023-04-24T01:11:44;99140.09;;;18.72;24.28
70217;BME280;65567;55.684;37.570;2023-04-24T01:14:11;99142.28;;;18.66;24.60
70217;BME280;65567;55.684;37.570;2023-04-24T01:16:37;99148.50;;;18.56;24.64
70217;BME280;65567;55.684;37.570;2023-04-24T01:19:07;99143.28;;;18.44;24.78
70217;BME280;65567;55.684;37.570;2023-04-24T01:21:36;99141.97;;;18.39;24.96
70217;BME280;65567;55.684;37.570;2023-04-24T01:24:06;99137.56;;;18.49;25.10
70217;BME280;65567;55.684;37.570;2023-04-24T01:26:33;99132.59;;;18.56;24.70
70217;BME280;65567;55.684;37.570;2023-04-24T01:28:59;99138.16;;;18.53;25.45
70217;BME280;65567;55.684;37.570;2023-04-24T01:31:26;99131.63;;;18.88;25.12
70217;BME280;65567;55.684;37.570;2023-04-24T01:33:52;99132.88;;;19.14;25.36
70217;BME280;65567;55.684;37.570;2023-04-24T01:36:19;99134.88;;;19.32;25.01
70217;BME280;65567;55.684;37.570;2023-04-24T01:38:45;99128.06;;;19.59;24.25
70217;BME280;65567;55.684;37.570;2023-04-24T01:41:11;99122.88;;;19.67;24.16
70217;BME280;65567;55.684;37.570;2023-04-24T01:43:37;99131.00;;;19.75;24.27
70217;BME280;65567;55.684;37.570;2023-04-24T01:46:03;99127.69;;;19.93;23.80
70217;BME280;65567;55.684;37.570;2023-04-24T01:48:30;99122.91;;;20.06;23.40
70217;BME280;65567;55.684;37.570;2023-04-24T01:50:57;99127.13;;;19.99;23.39
70217;BME280;65567;55.684;37.570;2023-04-24T01:53:23;99123.47;;;20.00;23.51
70217;BME280;65567;55.684;37.570;2023-04-24T01:55:49;99125.88;;;20.03;23.81
70217;BME280;65567;55.684;37.570;2023-04-24T01:58:15;99113.97;;;20.07;23.58
70217;BME280;65567;55.684;37.570;2023-04-24T02:00:40;99115.50;;;20.10;23.81
70217;BME280;65567;55.684;37.570;2023-04-24T02:03:06;99119.81;;;20.21;23.42
70217;BME280;65567;55.684;37.570;2023-04-24T02:05:32;99119.84;;;20.11;23.69
70217;BME280;65567;55.684;37.570;2023-04-24T02:07:58;99116.75;;;20.06;23.55
70217;BME280;65567;55.684;37.570;2023-04-24T02:10:25;99118.44;;;20.07;23.71
70217;BME280;65567;55.684;37.570;2023-04-24T02:12:50;99122.34;;;20.12;23.62
70217;BME280;65567;55.684;37.570;2023-04-24T02:15:16;99117.03;;;20.12;23.20
70217;BME280;65567;55.684;37.570;2023-04-24T02:17:43;99125.31;;;20.09;23.81
70217;BME280;65567;55.684;37.570;2023-04-24T02:20:09;99126.25;;;20.18;23.16
70217;BME280;65567;55.684;37.570;2023-04-24T02:22:35;99129.06;;;19.97;23.52
70217;BME280;65567;55.684;37.570;2023-04-24T02:25:01;99125.16;;;19.81;23.86
70217;BME280;65567;55.684;37.570;2023-04-24T02:27:27;99129.63;;;20.10;23.64
70217;BME280;65567;55.684;37.570;2023-04-24T02:29:52;99121.19;;;20.25;23.30
70217;BME280;65567;55.684;37.570;2023-04-24T02:32:18;99124.97;;;20.32;23.20
70217;BME280;65567;55.684;37.570;2023-04-24T02:34:44;99127.59;;;20.52;23.36
70217;BME280;65567;55.684;37.570;2023-04-24T02:37:10;99129.72;;;20.86;22.96
70217;BME280;65567;55.684;37.570;2023-04-24T02:39:36;99130.25;;;20.99;22.57
70217;BME280;65567;55.684;37.570;2023-04-24T02:42:02;99129.94;;;21.02;22.47
70217;BME280;65567;55.684;37.570;2023-04-24T02:44:28;99137.31;;;21.36;22.34
70217;BME280;65567;55.684;37.570;2023-04-24T02:46:54;99133.88;;;21.54;22.44
70217;BME280;65567;55.684;37.570;2023-04-24T02:49:20;99136.41;;;21.91;22.13
70217;BME280;65567;55.684;37.570;2023-04-24T02:51:45;99137.38;;;22.08;21.40
70217;BME280;65567;55.684;37.570;2023-04-24T02:54:11;99137.66;;;22.23;21.41
70217;BME280;65567;55.684;37.570;2023-04-24T02:56:37;99139.72;;;22.30;21.35
70217;BME280;65567;55.684;37.570;2023-04-24T02:59:03;99156.31;;;22.68;21.01
70217;BME280;65567;55.684;37.570;2023-04-24T03:01:29;99145.47;;;22.96;20.59
70217;BME280;65567;55.684;37.570;2023-04-24T03:03:55;99149.66;;;22.98;20.75
70217;BME280;65567;55.684;37.570;2023-04-24T03:06:21;99145.81;;;23.35;20.48
70217;BME280;65567;55.684;37.570;2023-04-24T03:08:47;99155.44;;;23.71;19.85
70217;BME280;65567;55.684;37.570;2023-04-24T03:11:13;99141.59;;;24.08;19.58
70217;BME280;65567;55.684;37.570;2023-04-24T03:13:39;99141.75;;;24.40;19.41
70217;BME280;65567;55.684;37.570;2023-04-24T03:16:05;99138.47;;;24.86;18.99
70217;BME280;65567;55.684;37.570;2023-04-24T03:18:31;99147.53;;;25.24;18.33
70217;BME280;65567;55.684;37.570;2023-04-24T03:20:57;99143.44;;;25.68;18.19
70217;BME280;65567;55.684;37.570;2023-04-24T03:23:23;99154.78;;;26.10;17.71
70217;BME280;65567;55.684;37.570;2023-04-24T03:25:48;99151.22;;;26.10;17.20
70217;BME280;65567;55.684;37.570;2023-04-24T03:28:15;99148.63;;;26.39;17.38
70217;BME280;65567;55.684;37.570;2023-04-24T03:30:40;99152.25;;;26.47;17.20
70217;BME280;65567;55.684;37.570;2023-04-24T03:33:07;99145.78;;;26.56;16.90
70217;BME280;65567;55.684;37.570;2023-04-24T03:35:33;99148.44;;;26.41;16.92
70217;BME280;65567;55.684;37.570;2023-04-24T03:37:59;99146.66;;;26.33;17.35
70217;BME280;65567;55.684;37.570;2023-04-24T03:40:24;99150.63;;;26.22;17.84
70217;BME280;65567;55.684;37.570;2023-04-24T03:42:50;99156.66;;;26.25;17.65
70217;BME280;65567;55.684;37.570;2023-04-24T03:45:16;99150.91;;;26.43;17.58
70217;BME280;65567;55.684;37.570;2023-04-24T03:47:42;99156.19;;;26.21;17.92
70217;BME280;65567;55.684;37.570;2023-04-24T03:50:09;99150.03;;;26.12;18.10
70217;BME280;65567;55.684;37.570;2023-04-24T03:52:34;99160.72;;;25.97;18.19
70217;BME280;65567;55.684;37.570;2023-04-24T03:55:00;99156.47;;;26.03;18.40
70217;BME280;65567;55.684;37.570;2023-04-24T03:57:26;99164.56;;;26.18;17.62
70217;BME280;65567;55.684;37.570;2023-04-24T03:59:52;99158.69;;;26.22;18.03
70217;BME280;65567;55.684;37.570;2023-04-24T04:02:19;99168.09;;;26.57;17.51
70217;BME280;65567;55.684;37.570;2023-04-24T04:04:45;99170.19;;;26.99;16.94
70217;BME280;65567;55.684;37.570;2023-04-24T04:07:11;99169.97;;;27.46;17.11
70217;BME280;65567;55.684;37.570;2023-04-24T04:09:38;99181.44;;;27.91;16.44
70217;BME280;65567;55.684;37.570;2023-04-24T04:12:04;99173.53;;;28.33;15.67
70217;BME280;65567;55.684;37.570;2023-04-24T04:14:30;99169.63;;;28.64;15.98
70217;BME280;65567;55.684;37.570;2023-04-24T04:16:55;99163.25;;;29.07;14.96
70217;BME280;65567;55.684;37.570;2023-04-24T04:19:21;99170.53;;;29.55;15.24
70217;BME280;65567;55.684;37.570;2023-04-24T04:21:47;99169.41;;;29.97;14.58
70217;BME280;65567;55.684;37.570;2023-04-24T04:24:19;99170.25;;;30.11;14.26
70217;BME280;65567;55.684;37.570;2023-04-24T04:26:46;99172.72;;;30.26;14.07
70217;BME280;65567;55.684;37.570;2023-04-24T04:29:13;99178.31;;;30.92;13.49
70217;BME280;65567;55.684;37.570;2023-04-24T04:31:39;99174.28;;;31.21;13.44
70217;BME280;65567;55.684;37.570;2023-04-24T04:34:05;99173.25;;;31.61;13.32
70217;BME280;65567;55.684;37.570;2023-04-24T04:36:33;99182.66;;;31.97;12.80
70217;BME280;65567;55.684;37.570;2023-04-24T04:39:02;99173.25;;;32.00;12.48
70217;BME280;65567;55.684;37.570;2023-04-24T04:41:29;99175.84;;;32.20;12.28
70217;BME280;65567;55.684;37.570;2023-04-24T04:43:55;99171.78;;;32.54;12.38
70217;BME280;65567;55.684;37.570;2023-04-24T04:46:24;99169.91;;;32.80;11.98
70217;BME280;65567;55.684;37.570;2023-04-24T04:48:52;99173.91;;;32.96;11.94
70217;BME280;65567;55.684;37.570;2023-04-24T04:51:19;99169.22;;;32.85;12.12
70217;BME280;65567;55.684;37.570;2023-04-24T04:53:45;99175.25;;;32.87;12.47
70217;BME280;65567;55.684;37.570;2023-04-24T04:56:11;99177.03;;;32.74;12.18
70217;BME280;65567;55.684;37.570;2023-04-24T04:58:37;99176.47;;;32.66;12.25
70217;BME280;65567;55.684;37.570;2023-04-24T05:01:03;99180.03;;;32.66;12.67
70217;BME280;65567;55.684;37.570;2023-04-24T05:03:29;99180.09;;;32.59;12.21
70217;BME280;65567;55.684;37.570;2023-04-24T05:05:55;99185.19;;;32.49;12.27
70217;BME280;65567;55.684;37.570;2023-04-24T05:08:23;99182.19;;;32.57;12.13
70217;BME280;65567;55.684;37.570;2023-04-24T05:10:49;99183.53;;;32.48;12.09
70217;BME280;65567;55.684;37.570;2023-04-24T05:13:15;99176.69;;;32.64;12.04
70217;BME280;65567;55.684;37.570;2023-04-24T05:15:41;99183.47;;;32.80;12.08
70217;BME280;65567;55.684;37.570;2023-04-24T05:18:07;99178.56;;;32.89;12.02
70217;BME280;65567;55.684;37.570;2023-04-24T05:20:33;99184.91;;;32.83;11.95
70217;BME280;65567;55.684;37.570;2023-04-24T05:22:58;99180.13;;;32.97;12.21
70217;BME280;65567;55.684;37.570;2023-04-24T05:25:24;99185.34;;;32.98;12.43
70217;BME280;65567;55.684;37.570;2023-04-24T05:27:50;99176.88;;;33.25;12.04
70217;BME280;65567;55.684;37.570;2023-04-24T05:30:16;99178.25;;;33.16;11.99
70217;BME280;65567;55.684;37.570;2023-04-24T05:32:41;99187.25;;;33.35;12.71
70217;BME280;65567;55.684;37.570;2023-04-24T05:35:08;99184.94;;;33.50;12.61
70217;BME280;65567;55.684;37.570;2023-04-24T05:37:33;99184.88;;;33.57;12.64
70217;BME280;65567;55.684;37.570;2023-04-24T05:39:59;99182.91;;;33.76;12.78
70217;BME280;65567;55.684;37.570;2023-04-24T05:42:25;99175.72;;;33.70;12.34
70217;BME280;65567;55.684;37.570;2023-04-24T05:44:51;99178.19;;;33.71;12.93
70217;BME280;65567;55.684;37.570;2023-04-24T05:47:20;99171.47;;;33.74;12.95
70217;BME280;65567;55.684;37.570;2023-04-24T05:49:47;99176.50;;;33.58;13.09
70217;BME280;65567;55.684;37.570;2023-04-24T05:52:13;99181.78;;;33.53;12.79
70217;BME280;65567;55.684;37.570;2023-04-24T05:54:39;99177.00;;;33.67;12.46
70217;BME280;65567;55.684;37.570;2023-04-24T05:57:05;99183.25;;;33.68;12.30
70217;BME280;65567;55.684;37.570;2023-04-24T05:59:37;99177.59;;;33.69;13.28
70217;BME280;65567;55.684;37.570;2023-04-24T06:02:07;99178.69;;;33.80;11.88
70217;BME280;65567;55.684;37.570;2023-04-24T06:04:33;99182.25;;;33.81;11.69
70217;BME280;65567;55.684;37.570;2023-04-24T06:06:59;99184.56;;;33.77;12.28
70217;BME280;65567;55.684;37.570;2023-04-24T06:09:25;99180.16;;;33.64;12.52
70217;BME280;65567;55.684;37.570;2023-04-24T06:11:51;99173.00;;;33.70;12.33
70217;BME280;65567;55.684;37.570;2023-04-24T06:14:19;99177.53;;;33.57;12.48
70217;BME280;65567;55.684;37.570;2023-04-24T06:16:45;99178.28;;;33.65;12.06
70217;BME280;65567;55.684;37.570;2023-04-24T06:19:11;99178.16;;;33.59;12.37
70217;BME280;65567;55.684;37.570;2023-04-24T06:21:37;99183.44;;;33.54;12.28
70217;BME280;65567;55.684;37.570;2023-04-24T06:24:03;99182.53;;;33.42;13.48
70217;BME280;65567;55.684;37.570;2023-04-24T06:26:30;99183.13;;;33.25;11.87
70217;BME280;65567;55.684;37.570;2023-04-24T06:28:56;99186.59;;;33.51;12.40
70217;BME280;65567;55.684;37.570;2023-04-24T06:31:23;99190.88;;;33.10;12.74
70217;BME280;65567;55.684;37.570;2023-04-24T06:33:49;99187.94;;;33.30;12.46
70217;BME280;65567;55.684;37.570;2023-04-24T06:36:15;99189.94;;;33.16;12.48
70217;BME280;65567;55.684;37.570;2023-04-24T06:38:42;99188.91;;;32.99;12.51
70217;BME280;65567;55.684;37.570;2023-04-24T06:41:09;99186.25;;;33.10;11.83
70217;BME280;65567;55.684;37.570;2023-04-24T06:43:36;99179.41;;;33.26;11.79
70217;BME280;65567;55.684;37.570;2023-04-24T06:46:01;99175.06;;;33.19;11.76
70217;BME280;65567;55.684;37.570;2023-04-24T06:48:29;99185.25;;;33.23;12.18
70217;BME280;65567;55.684;37.570;2023-04-24T06:50:55;99184.94;;;33.50;11.57
70217;BME280;65567;55.684;37.570;2023-04-24T06:53:21;99193.88;;;33.39;11.92
70217;BME280;65567;55.684;37.570;2023-04-24T06:55:47;99192.31;;;33.62;11.89
70217;BME280;65567;55.684;37.570;2023-04-24T06:58:14;99193.06;;;33.69;11.69
70217;BME280;65567;55.684;37.570;2023-04-24T07:00:40;99189.84;;;33.60;11.84
70217;BME280;65567;55.684;37.570;2023-04-24T07:03:06;99185.25;;;33.42;13.84
70217;BME280;65567;55.684;37.570;2023-04-24T07:05:32;99196.88;;;33.31;11.96
70217;BME280;65567;55.684;37.570;2023-04-24T07:08:01;99192.22;;;33.19;11.99
70217;BME280;65567;55.684;37.570;2023-04-24T07:10:27;99196.34;;;33.22;11.84
70217;BME280;65567;55.684;37.570;2023-04-24T07:12:54;99194.78;;;33.33;11.80
70217;BME280;65567;55.684;37.570;2023-04-24T07:15:22;99190.97;;;33.52;12.06
70217;BME280;65567;55.684;37.570;2023-04-24T07:17:48;99197.75;;;33.62;11.58
70217;BME280;65567;55.684;37.570;2023-04-24T07:20:15;99198.34;;;33.64;11.29
70217;BME280;65567;55.684;37.570;2023-04-24T07:22:41;99202.50;;;33.66;11.78
70217;BME280;65567;55.684;37.570;2023-04-24T07:25:08;99196.22;;;33.84;11.97
70217;BME280;65567;55.684;37.570;2023-04-24T07:27:34;99197.66;;;33.87;11.47
70217;BME280;65567;55.684;37.570;2023-04-24T07:30:03;99205.84;;;33.99;11.52
70217;BME280;65567;55.684;37.570;2023-04-24T07:32:29;99199.16;;;33.83;13.39
70217;BME280;65567;55.684;37.570;2023-04-24T07:34:55;99200.56;;;33.85;11.88
70217;BME280;65567;55.684;37.570;2023-04-24T07:37:22;99191.09;;;34.18;11.07
70217;BME280;65567;55.684;37.570;2023-04-24T07:39:48;99196.03;;;34.09;10.87
70217;BME280;65567;55.684;37.570;2023-04-24T07:42:14;99190.97;;;34.13;11.27
70217;BME280;65567;55.684;37.570;2023-04-24T07:44:40;99200.19;;;34.24;11.20
70217;BME280;65567;55.684;37.570;2023-04-24T07:47:05;99200.97;;;34.43;10.69
70217;BME280;65567;55.684;37.570;2023-04-24T07:49:31;99188.78;;;34.34;11.66
70217;BME280;65567;55.684;37.570;2023-04-24T07:51:59;99196.72;;;34.47;10.78
70217;BME280;65567;55.684;37.570;2023-04-24T07:54:27;99199.53;;;34.52;11.44
70217;BME280;65567;55.684;37.570;2023-04-24T07:56:54;99193.88;;;34.54;11.72
70217;BME280;65567;55.684;37.570;2023-04-24T07:59:20;99192.44;;;34.51;12.66
70217;BME280;65567;55.684;37.570;2023-04-24T08:01:46;99187.38;;;34.43;11.42
70217;BME280;65567;55.684;37.570;2023-04-24T08:04:12;99187.72;;;34.70;11.21
70217;BME280;65567;55.684;37.570;2023-04-24T08:06:39;99178.00;;;34.74;10.55
70217;BME280;65567;55.684;37.570;2023-04-24T08:09:06;99186.66;;;34.48;10.87
70217;BME280;65567;55.684;37.570;2023-04-24T08:11:31;99184.28;;;34.39;11.90
70217;BME280;65567;55.684;37.570;2023-04-24T08:13:58;99184.28;;;34.75;10.89
70217;BME280;65567;55.684;37.570;2023-04-24T08:16:24;99183.09;;;34.95;11.61
70217;BME280;65567;55.684;37.570;2023-04-24T08:18:50;99171.03;;;34.67;10.58
70217;BME280;65567;55.684;37.570;2023-04-24T08:21:16;99168.06;;;34.92;10.59
70217;BME280;65567;55.684;37.570;2023-04-24T08:23:44;99165.94;;;34.94;11.00
70217;BME280;65567;55.684;37.570;2023-04-24T08:26:11;99178.84;;;34.51;10.30
70217;BME280;65567;55.684;37.570;2023-04-24T08:28:37;99176.38;;;34.38;10.43
70217;BME280;65567;55.684;37.570;2023-04-24T08:31:03;99183.59;;;34.32;10.55
70217;BME280;65567;55.684;37.570;2023-04-24T08:33:30;99164.41;;;34.27;10.90
70217;BME280;65567;55.684;37.570;2023-04-24T08:36:01;99171.88;;;34.79;10.23
70217;BME280;65567;55.684;37.570;2023-04-24T08:38:28;99166.44;;;34.91;10.46
70217;BME280;65567;55.684;37.570;2023-04-24T08:40:54;99167.81;;;35.05;9.84
70217;BME280;65567;55.684;37.570;2023-04-24T08:43:22;99156.25;;;35.27;10.51
70217;BME280;65567;55.684;37.570;2023-04-24T08:45:48;99163.19;;;35.06;10.60
70217;BME280;65567;55.684;37.570;2023-04-24T08:48:15;99167.09;;;34.98;11.28
70217;BME280;65567;55.684;37.570;2023-04-24T08:50:41;99161.19;;;34.78;10.26
70217;BME280;65567;55.684;37.570;2023-04-24T08:53:10;99152.09;;;34.96;10.32
70217;BME280;65567;55.684;37.570;2023-04-24T08:55:37;99150.41;;;34.95;9.97
70217;BME280;65567;55.684;37.570;2023-04-24T08:58:03;99149.00;;;34.80;10.21
70217;BME280;65567;55.684;37.570;2023-04-24T09:00:30;99151.50;;;34.58;10.37
70217;BME280;65567;55.684;37.570;2023-04-24T09:03:00;99154.97;;;34.53;10.57
70217;BME280;65567;55.684;37.570;2023-04-24T09:05:27;99150.13;;;33.59;10.72
70217;BME280;65567;55.684;37.570;2023-04-24T09:07:54;99144.16;;;33.38;10.80
70217;BME280;65567;55.684;37.570;2023-04-24T09:10:25;99144.75;;;32.66;11.13
70217;BME280;65567;55.684;37.570;2023-04-24T09:12:52;99144.59;;;32.17;11.43
70217;BME280;65567;55.684;37.570;2023-04-24T09:15:20;99139.34;;;32.16;11.40
70217;BME280;65567;55.684;37.570;2023-04-24T09:17:46;99138.94;;;32.44;11.61
70217;BME280;65567;55.684;37.570;2023-04-24T09:20:13;99131.53;;;32.51;11.24
70217;BME280;65567;55.684;37.570;2023-04-24T09:22:39;99137.00;;;32.70;11.44
70217;BME280;65567;55.684;37.570;2023-04-24T09:25:07;99123.78;;;32.80;11.62
70217;BME280;65567;55.684;37.570;2023-04-24T09:27:34;99131.72;;;33.31;11.03
70217;BME280;65567;55.684;37.570;2023-04-24T09:30:00;99117.91;;;33.63;10.59
70217;BME280;65567;55.684;37.570;2023-04-24T09:32:26;99116.50;;;34.02;10.97
70217;BME280;65567;55.684;37.570;2023-04-24T09:35:10;99127.97;;;34.16;11.83
70217;BME280;65567;55.684;37.570;2023-04-24T09:37:41;99127.72;;;34.06;11.70
70217;BME280;65567;55.684;37.570;2023-04-24T09:40:18;99117.88;;;33.93;11.50
70217;BME280;65567;55.684;37.570;2023-04-24T09:42:55;99125.59;;;33.66;11.44
70217;BME280;65567;55.684;37.570;2023-04-24T09:45:23;99118.47;;;33.53;10.80
70217;BME280;65567;55.684;37.570;2023-04-24T09:47:53;99116.19;;;33.19;10.85
70217;BME280;65567;55.684;37.570;2023-04-24T09:50:19;99106.25;;;33.32;10.72
70217;BME280;65567;55.684;37.570;2023-04-24T09:52:55;99097.88;;;32.59;11.13
70217;BME280;65567;55.684;37.570;2023-04-24T09:55:21;99107.44;;;32.43;11.43
70217;BME280;65567;55.684;37.570;2023-04-24T10:00:18;99097.38;;;31.74;11.54
70217;BME280;65567;55.684;37.570;2023-04-24T10:02:50;99101.25;;;31.53;11.93
70217;BME280;65567;55.684;37.570;2023-04-24T10:05:17;99093.50;;;31.63;11.67
70217;BME280;65567;55.684;37.570;2023-04-24T10:07:43;99098.13;;;31.18;11.81
70217;BME280;65567;55.684;37.570;2023-04-24T10:10:10;99102.69;;;31.17;12.31
70217;BME280;65567;55.684;37.570;2023-04-24T10:12:36;99097.91;;;31.19;12.17
70217;BME280;65567;55.684;37.570;2023-04-24T10:15:03;99104.03;;;31.40;12.29
70217;BME280;65567;55.684;37.570;2023-04-24T10:17:31;99091.59;;;31.64;11.59
70217;BME280;65567;55.684;37.570;2023-04-24T10:19:58;99089.53;;;31.66;11.62
70217;BME280;65567;55.684;37.570;2023-04-24T10:22:26;99092.34;;;31.01;12.48
70217;BME280;65567;55.684;37.570;2023-04-24T10:24:55;99093.75;;;31.55;12.04
70217;BME280;65567;55.684;37.570;2023-04-24T10:27:23;99091.63;;;31.25;13.37
70217;BME280;65567;55.684;37.570;2023-04-24T10:29:52;99094.78;;;31.54;12.58
70217;BME280;65567;55.684;37.570;2023-04-24T10:32:19;99083.81;;;31.42;12.31
70217;BME280;65567;55.684;37.570;2023-04-24T10:34:45;99084.56;;;31.63;11.77
70217;BME280;65567;55.684;37.570;2023-04-24T10:37:11;99089.28;;;31.36;12.11
70217;BME280;65567;55.684;37.570;2023-04-24T10:39:39;99082.47;;;31.58;11.57
70217;BME280;65567;55.684;37.570;2023-04-24T10:42:15;99083.03;;;31.35;11.54
70217;BME280;65567;55.684;37.570;2023-04-24T10:44:41;99084.44;;;30.92;11.88
70217;BME280;65567;55.684;37.570;2023-04-24T10:47:13;99083.41;;;30.93;12.42
70217;BME280;65567;55.684;37.570;2023-04-24T10:49:40;99076.22;;;30.74;11.97
70217;BME280;65567;55.684;37.570;2023-04-24T10:52:06;99081.25;;;30.43;12.40
70217;BME280;65567;55.684;37.570;2023-04-24T10:59:49;99071.91;;;30.53;12.47
70217;BME280;65567;55.684;37.570;2023-04-24T11:02:17;99063.84;;;30.19;12.52
70217;BME280;65567;55.684;37.570;2023-04-24T11:04:50;99065.88;;;29.77;12.96
70217;BME280;65567;55.684;37.570;2023-04-24T11:07:16;99065.50;;;29.80;12.85
70217;BME280;65567;55.684;37.570;2023-04-24T11:09:42;99065.25;;;29.41;13.43
70217;BME280;65567;55.684;37.570;2023-04-24T11:12:10;99063.25;;;29.01;13.57
70217;BME280;65567;55.684;37.570;2023-04-24T11:20:06;99055.06;;;28.81;13.30
70217;BME280;65567;55.684;37.570;2023-04-24T11:22:34;99051.91;;;28.08;13.74
70217;BME280;65567;55.684;37.570;2023-04-24T11:25:02;99052.06;;;27.78;13.76
70217;BME280;65567;55.684;37.570;2023-04-24T11:27:39;99034.53;;;27.82;13.82
70217;BME280;65567;55.684;37.570;2023-04-24T11:30:06;99055.81;;;27.77;13.98
70217;BME280;65567;55.684;37.570;2023-04-24T11:35:00;99037.69;;;27.64;14.63
70217;BME280;65567;55.684;37.570;2023-04-24T11:37:28;99034.66;;;27.30;14.61
70217;BME280;65567;55.684;37.570;2023-04-24T11:39:56;99037.94;;;27.47;14.47
70217;BME280;65567;55.684;37.570;2023-04-24T11:42:22;99034.78;;;27.22;14.53
70217;BME280;65567;55.684;37.570;2023-04-24T11:44:51;99021.09;;;27.39;14.34
70217;BME280;65567;55.684;37.570;2023-04-24T11:47:18;99019.03;;;26.82;14.43
70217;BME280;65567;55.684;37.570;2023-04-24T11:49:44;99013.78;;;26.74;14.40
70217;BME280;65567;55.684;37.570;2023-04-24T11:52:15;99018.53;;;26.94;14.87
70217;BME280;65567;55.684;37.570;2023-04-24T11:54:47;99013.75;;;27.11;14.74
70217;BME280;65567;55.684;37.570;2023-04-24T11:57:14;99016.06;;;26.92;14.87
70217;BME280;65567;55.684;37.570;2023-04-24T11:59:40;99011.34;;;27.16;15.29
70217;BME280;65567;55.684;37.570;2023-04-24T12:02:06;99016.19;;;27.06;14.99
70217;BME280;65567;55.684;37.570;2023-04-24T12:04:40;99010.69;;;27.14;15.51
70217;BME280;65567;55.684;37.570;2023-04-24T12:07:06;99003.72;;;27.19;14.85
70217;BME280;65567;55.684;37.570;2023-04-24T12:09:43;99001.81;;;27.13;14.60
70217;BME280;65567;55.684;37.570;2023-04-24T12:12:12;99004.84;;;26.88;14.68
70217;BME280;65567;55.684;37.570;2023-04-24T12:14:52;98996.97;;;27.09;14.61
70217;BME280;65567;55.684;37.570;2023-04-24T12:17:33;98996.72;;;26.82;15.43
70217;BME280;65567;55.684;37.570;2023-04-24T12:20:06;98999.31;;;27.12;14.72
70217;BME280;65567;55.684;37.570;2023-04-24T12:22:50;98993.28;;;27.10;14.80
70217;BME280;65567;55.684;37.570;2023-04-24T12:25:18;98993.41;;;27.01;14.47
70217;BME280;65567;55.684;37.570;2023-04-24T12:27:52;98996.34;;;27.07;14.63
70217;BME280;65567;55.684;37.570;2023-04-24T12:30:19;98997.78;;;26.87;14.41
70217;BME280;65567;55.684;37.570;2023-04-24T12:32:49;98997.72;;;26.81;14.50
70217;BME280;65567;55.684;37.570;2023-04-24T12:35:24;98983.00;;;26.62;14.45
70217;BME280;65567;55.684;37.570;2023-04-24T12:37:50;98988.09;;;26.57;14.23
70217;BME280;65567;55.684;37.570;2023-04-24T12:40:17;98992.28;;;26.44;14.51
70217;BME280;65567;55.684;37.570;2023-04-24T12:42:45;98996.47;;;26.47;14.51
70217;BME280;65567;55.684;37.570;2023-04-24T12:45:11;98984.31;;;26.36;14.29
70217;BME280;65567;55.684;37.570;2023-04-24T12:47:38;98984.50;;;26.34;14.23
70217;BME280;65567;55.684;37.570;2023-04-24T12:50:07;98974.69;;;26.27;14.51
70217;BME280;65567;55.684;37.570;2023-04-24T12:52:33;98983.66;;;26.19;14.69
70217;BME280;65567;55.684;37.570;2023-04-24T12:55:00;98971.03;;;25.75;15.44
70217;BME280;65567;55.684;37.570;2023-04-24T12:57:28;98975.19;;;25.62;15.91
70217;BME280;65567;55.684;37.570;2023-04-24T12:59:56;98980.84;;;25.67;15.94
70217;BME280;65567;55.684;37.570;2023-04-24T13:02:26;98973.47;;;25.84;16.10
70217;BME280;65567;55.684;37.570;2023-04-24T13:04:53;98973.38;;;25.78;15.71